sensor_id;sensor_type;location;lat;lon;timestamp;P1;durP1;ratioP1;P2;durP2;ratioP2
77164;SDS011;66140;50.280;18.660;2022-12-20T05:00:28;17.88;;;7.70;;
77164;SDS011;66140;50.280;18.660;2022-12-20T05:02:54;25.98;;;11.38;;
77164;SDS011;66140;50.280;18.660;2022-12-20T05:05:19;20.20;;;10.33;;
77164;SDS011;66140;50.280;18.660;2022-12-20T05:07:44;21.75;;;10.20;;
77164;SDS011;66140;50.280;18.660;2022-12-20T05:10:10;21.60;;;10.10;;
77164;SDS011;66140;50.280;18.660;2022-12-20T05:12:35;23.10;;;10.23;;
77164;SDS011;66140;50.280;18.660;2022-12-20T05:15:01;21.63;;;9.85;;
77164;SDS011;66140;50.280;18.660;2022-12-20T05:17:26;16.35;;;7.45;;
77164;SDS011;66140;50.280;18.660;2022-12-20T05:19:52;21.45;;;10.35;;
77164;SDS011;66140;50.280;18.660;2022-12-20T05:22:17;17.02;;;8.55;;
77164;SDS011;66140;50.280;18.660;2022-12-20T05:25:01;20.45;;;9.98;;
77164;SDS011;66140;50.280;18.660;2022-12-20T05:27:45;23.45;;;10.05;;
77164;SDS011;66140;50.280;18.660;2022-12-20T05:30:11;26.07;;;12.60;;
77164;SDS011;66140;50.280;18.660;2022-12-20T05:32:36;21.38;;;10.25;;
77164;SDS011;66140;50.280;18.660;2022-12-20T05:35:02;20.73;;;10.05;;
77164;SDS011;66140;50.280;18.660;2022-12-20T05:37:28;20.15;;;10.82;;
77164;SDS011;66140;50.280;18.660;2022-12-20T05:39:53;20.60;;;9.87;;
77164;SDS011;66140;50.280;18.660;2022-12-20T05:42:18;19.80;;;9.45;;
77164;SDS011;66140;50.280;18.660;2022-12-20T05:44:44;21.08;;;10.00;;
77164;SDS011;66140;50.280;18.660;2022-12-20T05:47:09;21.00;;;10.97;;
77164;SDS011;66140;50.280;18.660;2022-12-20T05:49:35;24.00;;;10.65;;
77164;SDS011;66140;50.280;18.660;2022-12-20T05:52:01;23.00;;;11.33;;
77164;SDS011;66140;50.280;18.660;2022-12-20T05:54:26;22.67;;;12.10;;
77164;SDS011;66140;50.280;18.660;2022-12-20T05:56:52;18.65;;;8.95;;
77164;SDS011;66140;50.280;18.660;2022-12-20T05:59:17;24.67;;;11.40;;
77164;SDS011;66140;50.280;18.660;2022-12-20T06:04:27;21.25;;;9.80;;
77164;SDS011;66140;50.280;18.660;2022-12-20T06:06:52;24.65;;;11.95;;
77164;SDS011;66140;50.280;18.660;2022-12-20T06:09:18;21.57;;;8.63;;
77164;SDS011;66140;50.280;18.660;2022-12-20T06:11:43;25.15;;;11.98;;
77164;SDS011;66140;50.280;18.660;2022-12-20T06:14:09;26.00;;;10.53;;
77164;SDS011;66140;50.280;18.660;2022-12-20T06:16:34;22.15;;;10.93;;
77164;SDS011;66140;50.280;18.660;2022-12-20T06:19:00;25.42;;;11.07;;
77164;SDS011;66140;50.280;18.660;2022-12-20T06:21:26;20.30;;;10.88;;
77164;SDS011;66140;50.280;18.660;2022-12-20T06:23:52;28.40;;;9.80;;
77164;SDS011;66140;50.280;18.660;2022-12-20T06:26:19;24.52;;;11.68;;
77164;SDS011;66140;50.280;18.660;2022-12-20T06:28:47;19.52;;;9.07;;
77164;SDS011;66140;50.280;18.660;2022-12-20T06:31:16;20.50;;;8.95;;
77164;SDS011;66140;50.280;18.660;2022-12-20T06:33:41;20.63;;;9.10;;
77164;SDS011;66140;50.280;18.660;2022-12-20T06:36:09;17.52;;;7.95;;
77164;SDS011;66140;50.280;18.660;2022-12-20T06:38:34;21.60;;;10.83;;
77164;SDS011;66140;50.280;18.660;2022-12-20T06:41:00;17.63;;;8.25;;
77164;SDS011;66140;50.280;18.660;2022-12-20T06:43:26;24.65;;;11.50;;
77164;SDS011;66140;50.280;18.660;2022-12-20T06:45:51;26.00;;;11.18;;
77164;SDS011;66140;50.280;18.660;2022-12-20T06:48:17;28.47;;;13.03;;
77164;SDS011;66140;50.280;18.660;2022-12-20T06:50:42;25.98;;;12.10;;
77164;SDS011;66140;50.280;18.660;2022-12-20T06:53:07;24.23;;;10.50;;
77164;SDS011;66140;50.280;18.660;2022-12-20T06:55:33;25.58;;;11.25;;
77164;SDS011;66140;50.280;18.660;2022-12-20T06:57:58;20.45;;;10.55;;
77164;SDS011;66140;50.280;18.660;2022-12-20T07:00:24;21.77;;;12.05;;
77164;SDS011;66140;50.280;18.660;2022-12-20T07:02:49;28.85;;;12.68;;
77164;SDS011;66140;50.280;18.660;2022-12-20T07:05:15;26.37;;;11.70;;
77164;SDS011;66140;50.280;18.660;2022-12-20T07:07:40;18.15;;;8.02;;
77164;SDS011;66140;50.280;18.660;2022-12-20T07:10:06;29.15;;;11.88;;
77164;SDS011;66140;50.280;18.660;2022-12-20T07:12:32;24.25;;;11.57;;
77164;SDS011;66140;50.280;18.660;2022-12-20T07:14:58;28.17;;;10.07;;
77164;SDS011;66140;50.280;18.660;2022-12-20T07:17:23;24.27;;;11.43;;
77164;SDS011;66140;50.280;18.660;2022-12-20T07:19:51;24.50;;;10.98;;
77164;SDS011;66140;50.280;18.660;2022-12-20T07:22:17;27.60;;;11.32;;
77164;SDS011;66140;50.280;18.660;2022-12-20T07:24:42;24.30;;;10.27;;
77164;SDS011;66140;50.280;18.660;2022-12-20T07:27:09;26.45;;;10.90;;
77164;SDS011;66140;50.280;18.660;2022-12-20T07:29:35;24.40;;;11.70;;
77164;SDS011;66140;50.280;18.660;2022-12-20T07:32:04;25.27;;;10.63;;
77164;SDS011;66140;50.280;18.660;2022-12-20T07:34:30;18.08;;;9.75;;
77164;SDS011;66140;50.280;18.660;2022-12-20T07:36:55;24.30;;;12.03;;
77164;SDS011;66140;50.280;18.660;2022-12-20T07:39:20;23.70;;;10.63;;
77164;SDS011;66140;50.280;18.660;2022-12-20T07:41:46;29.00;;;12.50;;
77164;SDS011;66140;50.280;18.660;2022-12-20T07:44:11;22.05;;;10.98;;
77164;SDS011;66140;50.280;18.660;2022-12-20T07:46:37;24.98;;;9.55;;
77164;SDS011;66140;50.280;18.660;2022-12-20T07:49:02;23.93;;;11.43;;
77164;SDS011;66140;50.280;18.660;2022-12-20T07:51:37;21.40;;;11.05;;
77164;SDS011;66140;50.280;18.660;2022-12-20T07:54:14;21.90;;;10.85;;
77164;SDS011;66140;50.280;18.660;2022-12-20T07:56:45;26.08;;;11.60;;
77164;SDS011;66140;50.280;18.660;2022-12-20T07:59:14;24.50;;;11.57;;
77164;SDS011;66140;50.280;18.660;2022-12-20T08:01:44;21.08;;;10.00;;
77164;SDS011;66140;50.280;18.660;2022-12-20T08:04:12;22.65;;;10.45;;
77164;SDS011;66140;50.280;18.660;2022-12-20T08:06:41;20.23;;;9.50;;
77164;SDS011;66140;50.280;18.660;2022-12-20T08:09:06;22.42;;;11.18;;
77164;SDS011;66140;50.280;18.660;2022-12-20T08:11:37;27.70;;;11.13;;
77164;SDS011;66140;50.280;18.660;2022-12-20T08:14:05;22.98;;;10.15;;
77164;SDS011;66140;50.280;18.660;2022-12-20T08:16:32;21.58;;;10.95;;
77164;SDS011;66140;50.280;18.660;2022-12-20T08:18:58;23.13;;;11.02;;
77164;SDS011;66140;50.280;18.660;2022-12-20T08:21:23;20.55;;;9.55;;
77164;SDS011;66140;50.280;18.660;2022-12-20T08:23:49;23.83;;;10.43;;
77164;SDS011;66140;50.280;18.660;2022-12-20T08:26:14;21.23;;;9.82;;
77164;SDS011;66140;50.280;18.660;2022-12-20T08:28:40;21.85;;;11.10;;
77164;SDS011;66140;50.280;18.660;2022-12-20T08:31:06;20.27;;;9.88;;
77164;SDS011;66140;50.280;18.660;2022-12-20T08:33:33;21.90;;;11.27;;
77164;SDS011;66140;50.280;18.660;2022-12-20T08:36:01;19.27;;;9.55;;
77164;SDS011;66140;50.280;18.660;2022-12-20T08:38:28;24.70;;;10.38;;
77164;SDS011;66140;50.280;18.660;2022-12-20T08:40:55;20.52;;;10.93;;
77164;SDS011;66140;50.280;18.660;2022-12-20T08:43:20;18.88;;;9.05;;
77164;SDS011;66140;50.280;18.660;2022-12-20T08:45:53;21.23;;;10.38;;
77164;SDS011;66140;50.280;18.660;2022-12-20T08:48:19;16.88;;;8.43;;
77164;SDS011;66140;50.280;18.660;2022-12-20T08:50:45;19.08;;;10.23;;
77164;SDS011;66140;50.280;18.660;2022-12-20T08:53:11;19.40;;;10.23;;
77164;SDS011;66140;50.280;18.660;2022-12-20T08:55:36;22.20;;;10.43;;
77164;SDS011;66140;50.280;18.660;2022-12-20T08:58:02;17.97;;;8.20;;
77164;SDS011;66140;50.280;18.660;2022-12-20T09:00:27;21.13;;;10.00;;
77164;SDS011;66140;50.280;18.660;2022-12-20T09:02:53;27.65;;;11.13;;
77164;SDS011;66140;50.280;18.660;2022-12-20T09:05:19;29.48;;;10.43;;
77164;SDS011;66140;50.280;18.660;2022-12-20T09:07:45;21.13;;;8.88;;
77164;SDS011;66140;50.280;18.660;2022-12-20T09:10:10;23.25;;;10.68;;
77164;SDS011;66140;50.280;18.660;2022-12-20T09:12:37;21.80;;;9.80;;
77164;SDS011;66140;50.280;18.660;2022-12-20T09:15:03;19.73;;;10.15;;
77164;SDS011;66140;50.280;18.660;2022-12-20T09:17:29;15.70;;;9.32;;
77164;SDS011;66140;50.280;18.660;2022-12-20T09:19:55;23.05;;;10.75;;
77164;SDS011;66140;50.280;18.660;2022-12-20T09:22:20;18.73;;;9.53;;
77164;SDS011;66140;50.280;18.660;2022-12-20T09:24:45;19.00;;;9.50;;
77164;SDS011;66140;50.280;18.660;2022-12-20T09:27:11;19.63;;;9.50;;
77164;SDS011;66140;50.280;18.660;2022-12-20T09:29:36;22.00;;;9.95;;
77164;SDS011;66140;50.280;18.660;2022-12-20T09:32:05;20.20;;;10.20;;
77164;SDS011;66140;50.280;18.660;2022-12-20T09:34:30;18.38;;;8.70;;
77164;SDS011;66140;50.280;18.660;2022-12-20T09:36:56;23.95;;;8.90;;
77164;SDS011;66140;50.280;18.660;2022-12-20T09:39:21;17.67;;;8.70;;
77164;SDS011;66140;50.280;18.660;2022-12-20T09:41:50;21.67;;;10.10;;
77164;SDS011;66140;50.280;18.660;2022-12-20T09:46:50;21.10;;;9.43;;
77164;SDS011;66140;50.280;18.660;2022-12-20T09:49:19;19.88;;;10.00;;
77164;SDS011;66140;50.280;18.660;2022-12-20T09:54:55;17.73;;;8.55;;
77164;SDS011;66140;50.280;18.660;2022-12-20T09:58:26;25.58;;;11.40;;
77164;SDS011;66140;50.280;18.660;2022-12-20T10:00:47;17.88;;;9.40;;
77164;SDS011;66140;50.280;18.660;2022-12-20T10:03:28;16.75;;;8.40;;
77164;SDS011;66140;50.280;18.660;2022-12-20T10:05:59;22.08;;;9.00;;
77164;SDS011;66140;50.280;18.660;2022-12-20T10:08:54;17.90;;;8.00;;
77164;SDS011;66140;50.280;18.660;2022-12-20T10:21:54;22.55;;;9.02;;
77164;SDS011;66140;50.280;18.660;2022-12-20T10:24:31;18.70;;;9.65;;
77164;SDS011;66140;50.280;18.660;2022-12-20T10:27:11;19.20;;;9.38;;
77164;SDS011;66140;50.280;18.660;2022-12-20T10:29:40;22.90;;;9.88;;
77164;SDS011;66140;50.280;18.660;2022-12-20T10:32:11;23.10;;;10.20;;
77164;SDS011;66140;50.280;18.660;2022-12-20T10:35:04;20.63;;;8.70;;
77164;SDS011;66140;50.280;18.660;2022-12-20T10:37:35;14.93;;;8.07;;
77164;SDS011;66140;50.280;18.660;2022-12-20T10:40:00;17.67;;;8.65;;
77164;SDS011;66140;50.280;18.660;2022-12-20T10:42:36;20.63;;;9.32;;
77164;SDS011;66140;50.280;18.660;2022-12-20T10:45:54;17.95;;;8.70;;
77164;SDS011;66140;50.280;18.660;2022-12-20T10:47:59;19.60;;;10.00;;
77164;SDS011;66140;50.280;18.660;2022-12-20T10:50:26;21.77;;;10.60;;
77164;SDS011;66140;50.280;18.660;2022-12-20T10:55:35;16.23;;;6.47;;
77164;SDS011;66140;50.280;18.660;2022-12-20T10:58:05;23.83;;;9.20;;
77164;SDS011;66140;50.280;18.660;2022-12-20T11:00:39;21.75;;;10.15;;
77164;SDS011;66140;50.280;18.660;2022-12-20T11:03:18;18.35;;;9.43;;
77164;SDS011;66140;50.280;18.660;2022-12-20T11:05:52;20.65;;;9.98;;
77164;SDS011;66140;50.280;18.660;2022-12-20T11:08:21;24.50;;;11.20;;
77164;SDS011;66140;50.280;18.660;2022-12-20T11:10:48;18.30;;;9.57;;
77164;SDS011;66140;50.280;18.660;2022-12-20T11:13:19;23.98;;;10.90;;
77164;SDS011;66140;50.280;18.660;2022-12-20T11:15:50;16.65;;;9.40;;
77164;SDS011;66140;50.280;18.660;2022-12-20T11:23:40;19.90;;;9.52;;
77164;SDS011;66140;50.280;18.660;2022-12-20T11:37:23;24.90;;;10.80;;
77164;SDS011;66140;50.280;18.660;2022-12-20T11:50:52;16.40;;;9.10;;
77164;SDS011;66140;50.280;18.660;2022-12-20T11:56:01;16.92;;;9.68;;
77164;SDS011;66140;50.280;18.660;2022-12-20T11:58:54;16.95;;;9.02;;
77164;SDS011;66140;50.280;18.660;2022-12-20T12:02:12;19.77;;;8.90;;
77164;SDS011;66140;50.280;18.660;2022-12-20T12:04:30;18.63;;;8.85;;
77164;SDS011;66140;50.280;18.660;2022-12-20T12:07:06;16.40;;;9.55;;
77164;SDS011;66140;50.280;18.660;2022-12-20T12:10:12;19.80;;;10.10;;
77164;SDS011;66140;50.280;18.660;2022-12-20T12:16:08;22.65;;;11.40;;
77164;SDS011;66140;50.280;18.660;2022-12-20T12:18:37;22.70;;;10.60;;
77164;SDS011;66140;50.280;18.660;2022-12-20T12:26:30;25.38;;;11.93;;
77164;SDS011;66140;50.280;18.660;2022-12-20T12:29:02;24.75;;;10.55;;
77164;SDS011;66140;50.280;18.660;2022-12-20T12:31:35;26.13;;;11.98;;
77164;SDS011;66140;50.280;18.660;2022-12-20T12:34:06;21.38;;;10.18;;
77164;SDS011;66140;50.280;18.660;2022-12-20T12:39:56;24.08;;;11.38;;
77164;SDS011;66140;50.280;18.660;2022-12-20T12:48:40;25.83;;;11.55;;
77164;SDS011;66140;50.280;18.660;2022-12-20T12:51:11;24.83;;;11.85;;
77164;SDS011;66140;50.280;18.660;2022-12-20T12:53:48;19.85;;;10.50;;
77164;SDS011;66140;50.280;18.660;2022-12-20T12:56:39;17.75;;;9.57;;
77164;SDS011;66140;50.280;18.660;2022-12-20T13:04:23;21.13;;;10.27;;
77164;SDS011;66140;50.280;18.660;2022-12-20T13:06:55;17.58;;;9.45;;
77164;SDS011;66140;50.280;18.660;2022-12-20T13:11:50;23.53;;;10.63;;
77164;SDS011;66140;50.280;18.660;2022-12-20T13:16:48;23.75;;;10.32;;
77164;SDS011;66140;50.280;18.660;2022-12-20T13:30:00;18.00;;;9.20;;
77164;SDS011;66140;50.280;18.660;2022-12-20T13:38:03;23.58;;;11.77;;
77164;SDS011;66140;50.280;18.660;2022-12-20T13:40:49;24.20;;;11.68;;
77164;SDS011;66140;50.280;18.660;2022-12-20T13:43:28;23.95;;;11.50;;
77164;SDS011;66140;50.280;18.660;2022-12-20T13:46:12;24.15;;;11.98;;
77164;SDS011;66140;50.280;18.660;2022-12-20T13:51:12;22.67;;;9.67;;
77164;SDS011;66140;50.280;18.660;2022-12-20T13:53:48;22.95;;;10.48;;
77164;SDS011;66140;50.280;18.660;2022-12-20T14:01:56;23.40;;;10.52;;
77164;SDS011;66140;50.280;18.660;2022-12-20T14:04:24;27.75;;;11.25;;
77164;SDS011;66140;50.280;18.660;2022-12-20T14:06:52;23.13;;;11.57;;
77164;SDS011;66140;50.280;18.660;2022-12-20T14:09:42;20.85;;;9.82;;
77164;SDS011;66140;50.280;18.660;2022-12-20T14:12:13;20.58;;;11.63;;
77164;SDS011;66140;50.280;18.660;2022-12-20T14:14:47;19.27;;;10.65;;
77164;SDS011;66140;50.280;18.660;2022-12-20T14:17:15;20.48;;;10.20;;
77164;SDS011;66140;50.280;18.660;2022-12-20T14:20:03;24.75;;;12.73;;
77164;SDS011;66140;50.280;18.660;2022-12-20T14:22:40;21.90;;;10.43;;
77164;SDS011;66140;50.280;18.660;2022-12-20T14:25:29;28.98;;;12.73;;
77164;SDS011;66140;50.280;18.660;2022-12-20T14:28:04;28.05;;;13.18;;
77164;SDS011;66140;50.280;18.660;2022-12-20T14:30:40;28.00;;;12.05;;
77164;SDS011;66140;50.280;18.660;2022-12-20T14:33:17;29.52;;;13.60;;
77164;SDS011;66140;50.280;18.660;2022-12-20T14:35:52;28.35;;;12.82;;
77164;SDS011;66140;50.280;18.660;2022-12-20T14:38:27;23.65;;;10.68;;
77164;SDS011;66140;50.280;18.660;2022-12-20T14:40:54;20.20;;;10.30;;
77164;SDS011;66140;50.280;18.660;2022-12-20T14:43:27;25.63;;;12.27;;
77164;SDS011;66140;50.280;18.660;2022-12-20T14:48:42;27.55;;;13.45;;
77164;SDS011;66140;50.280;18.660;2022-12-20T14:51:07;29.80;;;13.52;;
77164;SDS011;66140;50.280;18.660;2022-12-20T14:53:33;24.50;;;11.88;;
77164;SDS011;66140;50.280;18.660;2022-12-20T14:56:01;25.05;;;12.98;;
77164;SDS011;66140;50.280;18.660;2022-12-20T15:00:58;27.23;;;13.50;;
77164;SDS011;66140;50.280;18.660;2022-12-20T15:03:28;23.13;;;11.02;;
77164;SDS011;66140;50.280;18.660;2022-12-20T15:05:57;31.33;;;12.80;;
77164;SDS011;66140;50.280;18.660;2022-12-20T15:08:30;27.90;;;13.02;;
77164;SDS011;66140;50.280;18.660;2022-12-20T15:11:00;30.05;;;13.88;;
77164;SDS011;66140;50.280;18.660;2022-12-20T15:13:39;29.38;;;13.18;;
77164;SDS011;66140;50.280;18.660;2022-12-20T15:18:50;25.83;;;13.40;;
77164;SDS011;66140;50.280;18.660;2022-12-20T15:21:33;29.98;;;15.40;;
77164;SDS011;66140;50.280;18.660;2022-12-20T15:24:02;32.38;;;14.82;;
77164;SDS011;66140;50.280;18.660;2022-12-20T15:26:32;29.48;;;14.18;;
77164;SDS011;66140;50.280;18.660;2022-12-20T15:28:58;25.27;;;12.48;;
77164;SDS011;66140;50.280;18.660;2022-12-20T15:31:24;24.73;;;11.27;;
77164;SDS011;66140;50.280;18.660;2022-12-20T15:33:51;27.75;;;15.20;;
77164;SDS011;66140;50.280;18.660;2022-12-20T15:36:23;25.17;;;12.85;;
77164;SDS011;66140;50.280;18.660;2022-12-20T15:38:54;30.08;;;13.60;;
77164;SDS011;66140;50.280;18.660;2022-12-20T15:41:24;26.67;;;13.20;;
77164;SDS011;66140;50.280;18.660;2022-12-20T15:44:02;28.92;;;14.55;;
77164;SDS011;66140;50.280;18.660;2022-12-20T15:46:31;28.67;;;13.82;;
77164;SDS011;66140;50.280;18.660;2022-12-20T15:48:57;30.83;;;14.40;;
77164;SDS011;66140;50.280;18.660;2022-12-20T15:51:26;46.45;;;18.60;;
77164;SDS011;66140;50.280;18.660;2022-12-20T15:53:52;31.92;;;14.35;;
77164;SDS011;66140;50.280;18.660;2022-12-20T15:56:20;29.48;;;12.98;;
77164;SDS011;66140;50.280;18.660;2022-12-20T16:01:35;33.28;;;13.27;;
77164;SDS011;66140;50.280;18.660;2022-12-20T16:04:01;33.03;;;15.00;;
77164;SDS011;66140;50.280;18.660;2022-12-20T16:06:27;30.35;;;13.30;;
77164;SDS011;66140;50.280;18.660;2022-12-20T16:08:55;29.15;;;12.13;;
77164;SDS011;66140;50.280;18.660;2022-12-20T16:11:22;32.95;;;14.68;;
77164;SDS011;66140;50.280;18.660;2022-12-20T16:13:51;27.70;;;11.63;;
77164;SDS011;66140;50.280;18.660;2022-12-20T16:16:19;28.42;;;13.52;;
77164;SDS011;66140;50.280;18.660;2022-12-20T16:18:46;22.77;;;12.73;;
77164;SDS011;66140;50.280;18.660;2022-12-20T16:21:15;29.90;;;13.98;;
77164;SDS011;66140;50.280;18.660;2022-12-20T16:23:43;25.30;;;11.75;;
77164;SDS011;66140;50.280;18.660;2022-12-20T16:26:15;26.50;;;12.82;;
77164;SDS011;66140;50.280;18.660;2022-12-20T16:28:43;28.50;;;13.90;;
77164;SDS011;66140;50.280;18.660;2022-12-20T16:31:31;28.08;;;12.85;;
77164;SDS011;66140;50.280;18.660;2022-12-20T16:33:57;26.67;;;13.15;;
77164;SDS011;66140;50.280;18.660;2022-12-20T16:36:26;33.70;;;16.10;;
77164;SDS011;66140;50.280;18.660;2022-12-20T16:38:56;28.00;;;13.48;;
77164;SDS011;66140;50.280;18.660;2022-12-20T16:41:26;34.00;;;14.75;;
77164;SDS011;66140;50.280;18.660;2022-12-20T16:43:54;28.17;;;12.70;;
77164;SDS011;66140;50.280;18.660;2022-12-20T16:46:21;25.20;;;12.13;;
77164;SDS011;66140;50.280;18.660;2022-12-20T16:48:50;26.77;;;13.02;;
77164;SDS011;66140;50.280;18.660;2022-12-20T16:51:30;27.27;;;14.15;;
77164;SDS011;66140;50.280;18.660;2022-12-20T16:53:58;34.30;;;15.00;;
77164;SDS011;66140;50.280;18.660;2022-12-20T16:56:26;31.63;;;15.50;;
77164;SDS011;66140;50.280;18.660;2022-12-20T16:58:52;32.33;;;14.98;;
77164;SDS011;66140;50.280;18.660;2022-12-20T17:01:21;26.83;;;12.80;;
77164;SDS011;66140;50.280;18.660;2022-12-20T17:03:52;30.73;;;13.55;;
77164;SDS011;66140;50.280;18.660;2022-12-20T17:06:18;26.48;;;13.43;;
77164;SDS011;66140;50.280;18.660;2022-12-20T17:08:44;29.75;;;14.23;;
77164;SDS011;66140;50.280;18.660;2022-12-20T17:13:39;27.77;;;14.20;;
77164;SDS011;66140;50.280;18.660;2022-12-20T17:16:07;31.15;;;11.82;;
77164;SDS011;66140;50.280;18.660;2022-12-20T17:21:00;26.77;;;13.00;;
77164;SDS011;66140;50.280;18.660;2022-12-20T17:23:32;28.85;;;14.13;;
77164;SDS011;66140;50.280;18.660;2022-12-20T17:26:01;30.50;;;14.02;;
77164;SDS011;66140;50.280;18.660;2022-12-20T17:28:27;34.38;;;13.73;;
77164;SDS011;66140;50.280;18.660;2022-12-20T17:31:03;30.50;;;15.30;;
77164;SDS011;66140;50.280;18.660;2022-12-20T17:33:51;29.27;;;13.38;;
77164;SDS011;66140;50.280;18.660;2022-12-20T17:36:17;33.13;;;14.43;;
77164;SDS011;66140;50.280;18.660;2022-12-20T17:38:43;30.55;;;15.80;;
77164;SDS011;66140;50.280;18.660;2022-12-20T17:41:34;22.08;;;11.85;;
77164;SDS011;66140;50.280;18.660;2022-12-20T17:44:01;30.02;;;14.07;;
77164;SDS011;66140;50.280;18.660;2022-12-20T17:46:28;30.45;;;14.27;;
77164;SDS011;66140;50.280;18.660;2022-12-20T17:48:54;30.20;;;13.68;;
77164;SDS011;66140;50.280;18.660;2022-12-20T17:51:25;31.48;;;14.65;;
77164;SDS011;66140;50.280;18.660;2022-12-20T17:53:53;33.45;;;13.75;;
77164;SDS011;66140;50.280;18.660;2022-12-20T17:56:27;31.55;;;14.82;;
77164;SDS011;66140;50.280;18.660;2022-12-20T17:58:57;26.50;;;13.20;;
77164;SDS011;66140;50.280;18.660;2022-12-20T18:01:25;27.05;;;13.15;;
77164;SDS011;66140;50.280;18.660;2022-12-20T18:03:54;30.95;;;14.15;;
77164;SDS011;66140;50.280;18.660;2022-12-20T18:06:21;25.85;;;13.75;;
77164;SDS011;66140;50.280;18.660;2022-12-20T18:08:54;34.97;;;15.63;;
77164;SDS011;66140;50.280;18.660;2022-12-20T18:11:21;36.17;;;17.10;;
77164;SDS011;66140;50.280;18.660;2022-12-20T18:13:49;31.80;;;15.20;;
77164;SDS011;66140;50.280;18.660;2022-12-20T18:16:17;32.72;;;15.18;;
77164;SDS011;66140;50.280;18.660;2022-12-20T18:18:47;31.17;;;14.55;;
77164;SDS011;66140;50.280;18.660;2022-12-20T18:21:14;30.38;;;14.57;;
77164;SDS011;66140;50.280;18.660;2022-12-20T18:23:44;27.10;;;13.60;;
77164;SDS011;66140;50.280;18.660;2022-12-20T18:26:12;36.33;;;16.42;;
77164;SDS011;66140;50.280;18.660;2022-12-20T18:28:38;30.88;;;14.65;;
77164;SDS011;66140;50.280;18.660;2022-12-20T18:31:05;26.80;;;14.52;;
77164;SDS011;66140;50.280;18.660;2022-12-20T18:33:32;31.85;;;15.52;;
77164;SDS011;66140;50.280;18.660;2022-12-20T18:36:02;34.97;;;16.63;;
77164;SDS011;66140;50.280;18.660;2022-12-20T18:38:31;31.23;;;14.77;;
77164;SDS011;66140;50.280;18.660;2022-12-20T18:40:57;37.83;;;14.10;;
77164;SDS011;66140;50.280;18.660;2022-12-20T18:43:27;36.22;;;14.57;;
77164;SDS011;66140;50.280;18.660;2022-12-20T18:45:55;32.22;;;14.18;;
77164;SDS011;66140;50.280;18.660;2022-12-20T18:48:24;32.10;;;14.48;;
77164;SDS011;66140;50.280;18.660;2022-12-20T18:50:50;29.85;;;14.82;;
77164;SDS011;66140;50.280;18.660;2022-12-20T18:53:15;29.30;;;13.77;;
77164;SDS011;66140;50.280;18.660;2022-12-20T18:55:40;31.90;;;12.68;;
77164;SDS011;66140;50.280;18.660;2022-12-20T18:58:06;28.77;;;13.10;;
77164;SDS011;66140;50.280;18.660;2022-12-20T19:00:37;29.02;;;12.57;;
77164;SDS011;66140;50.280;18.660;2022-12-20T19:03:03;28.95;;;15.13;;
77164;SDS011;66140;50.280;18.660;2022-12-20T19:05:31;40.88;;;20.35;;
77164;SDS011;66140;50.280;18.660;2022-12-20T19:07:57;30.50;;;15.00;;
77164;SDS011;66140;50.280;18.660;2022-12-20T19:10:22;30.63;;;12.90;;
77164;SDS011;66140;50.280;18.660;2022-12-20T19:12:48;27.42;;;13.15;;
77164;SDS011;66140;50.280;18.660;2022-12-20T19:15:13;30.95;;;14.10;;
77164;SDS011;66140;50.280;18.660;2022-12-20T19:17:39;30.60;;;14.13;;
77164;SDS011;66140;50.280;18.660;2022-12-20T19:20:05;24.60;;;13.02;;
77164;SDS011;66140;50.280;18.660;2022-12-20T19:22:31;31.70;;;13.30;;
77164;SDS011;66140;50.280;18.660;2022-12-20T19:24:56;30.17;;;13.88;;
77164;SDS011;66140;50.280;18.660;2022-12-20T19:27:22;28.88;;;12.25;;
77164;SDS011;66140;50.280;18.660;2022-12-20T19:29:48;23.33;;;11.73;;
77164;SDS011;66140;50.280;18.660;2022-12-20T19:32:13;28.95;;;14.43;;
77164;SDS011;66140;50.280;18.660;2022-12-20T19:34:44;27.10;;;14.13;;
77164;SDS011;66140;50.280;18.660;2022-12-20T19:37:10;31.75;;;12.55;;
77164;SDS011;66140;50.280;18.660;2022-12-20T19:39:39;27.67;;;12.02;;
77164;SDS011;66140;50.280;18.660;2022-12-20T19:42:05;25.38;;;12.50;;
77164;SDS011;66140;50.280;18.660;2022-12-20T19:44:30;29.42;;;13.20;;
77164;SDS011;66140;50.280;18.660;2022-12-20T19:46:56;29.80;;;13.13;;
77164;SDS011;66140;50.280;18.660;2022-12-20T19:49:21;27.23;;;12.38;;
77164;SDS011;66140;50.280;18.660;2022-12-20T19:51:47;25.30;;;12.60;;
77164;SDS011;66140;50.280;18.660;2022-12-20T19:54:14;29.30;;;14.05;;
77164;SDS011;66140;50.280;18.660;2022-12-20T19:56:39;25.40;;;11.95;;
77164;SDS011;66140;50.280;18.660;2022-12-20T19:59:05;23.38;;;12.32;;
77164;SDS011;66140;50.280;18.660;2022-12-20T20:01:30;30.17;;;14.38;;
77164;SDS011;66140;50.280;18.660;2022-12-20T20:03:57;24.67;;;12.93;;
77164;SDS011;66140;50.280;18.660;2022-12-20T20:06:23;27.20;;;12.65;;
77164;SDS011;66140;50.280;18.660;2022-12-20T20:08:49;26.42;;;12.43;;
77164;SDS011;66140;50.280;18.660;2022-12-20T20:11:15;24.08;;;13.05;;
77164;SDS011;66140;50.280;18.660;2022-12-20T20:13:41;29.60;;;11.85;;
77164;SDS011;66140;50.280;18.660;2022-12-20T20:16:08;21.02;;;9.93;;
77164;SDS011;66140;50.280;18.660;2022-12-20T20:18:37;25.13;;;10.18;;
77164;SDS011;66140;50.280;18.660;2022-12-20T20:21:07;29.00;;;12.68;;
77164;SDS011;66140;50.280;18.660;2022-12-20T20:23:35;25.30;;;12.15;;
77164;SDS011;66140;50.280;18.660;2022-12-20T20:26:01;28.23;;;13.02;;
77164;SDS011;66140;50.280;18.660;2022-12-20T20:28:31;25.90;;;12.45;;
